createdAt,value
2019-04-01T00:00:53.490Z,58.40
2019-04-01T00:03:29.697Z,58.10
2019-04-01T00:06:05.864Z,58.44
2019-04-01T00:08:41.648Z,58.23
2019-04-01T00:11:17.521Z,58.31
2019-04-01T00:13:53.363Z,58.63
2019-04-01T00:16:29.268Z,58.06
2019-04-01T00:19:05.077Z,58.41
2019-04-01T00:21:44.356Z,58.82
2019-04-01T00:24:19.133Z,58.65
2019-04-01T00:26:54.992Z,58.80
2019-04-01T00:29:31.010Z,59.50
2019-04-01T00:32:06.736Z,59.64
2019-04-01T00:34:42.560Z,59.35
2019-04-01T00:37:18.501Z,59.10
2019-04-01T00:39:54.366Z,58.79
2019-04-01T00:42:44.144Z,58.54
2019-04-01T00:45:21.538Z,58.51
2019-04-01T00:47:58.717Z,58.90
2019-04-01T00:50:34.575Z,58.76
2019-04-01T00:53:10.422Z,59.21
2019-04-01T00:55:46.375Z,58.90
2019-04-01T00:58:22.347Z,58.92
2019-04-01T01:00:58.184Z,59.28
2019-04-01T01:03:34.045Z,59.10
2019-04-01T01:06:10.209Z,59.49
2019-04-01T01:08:46.065Z,59.41
2019-04-01T01:11:21.918Z,59.29
2019-04-01T01:13:57.767Z,59.31
2019-04-01T01:16:33.634Z,59.66
2019-04-01T01:19:09.793Z,59.79
2019-04-01T01:21:45.635Z,59.58
2019-04-01T01:24:21.491Z,59.46
2019-04-01T01:26:57.357Z,59.41
2019-04-01T01:29:34.850Z,59.30
2019-04-01T01:32:10.684Z,58.88
2019-04-01T01:34:46.704Z,58.59
2019-04-01T01:37:24.297Z,59.05
2019-04-01T01:40:00.250Z,58.82
2019-04-01T01:42:36.158Z,58.86
2019-04-01T01:45:11.901Z,58.59
2019-04-01T01:47:47.760Z,58.95
2019-04-01T01:50:23.612Z,59.02
2019-04-01T01:52:59.469Z,58.92
2019-04-01T01:55:35.535Z,59.30
2019-04-01T01:58:11.647Z,59.29
2019-04-01T02:00:47.456Z,58.72
2019-04-01T02:03:24.834Z,58.20
2019-04-01T02:06:00.687Z,58.66
2019-04-01T02:08:36.545Z,59.07
2019-04-01T02:11:12.391Z,58.67
2019-04-01T02:13:48.248Z,58.71
2019-04-01T02:16:24.098Z,59.00
2019-04-01T02:18:59.947Z,59.09
2019-04-01T02:21:35.799Z,58.57
2019-04-01T02:24:11.671Z,59.17
2019-04-01T02:26:47.622Z,58.84
2019-04-01T02:29:23.441Z,58.67
2019-04-01T02:31:59.347Z,57.99
2019-04-01T02:34:35.069Z,58.18
2019-04-01T02:37:11.691Z,58.07
2019-04-01T02:39:47.504Z,58.19
2019-04-01T02:42:23.371Z,58.51
2019-04-01T02:44:59.214Z,58.39
2019-04-01T02:47:35.682Z,58.60
2019-04-01T02:50:11.957Z,58.51
2019-04-01T02:52:47.792Z,58.61
2019-04-01T02:55:23.551Z,58.88
2019-04-01T02:57:59.413Z,59.05
2019-04-01T03:00:35.462Z,59.39
2019-04-01T03:03:12.048Z,59.55
2019-04-01T03:05:48.606Z,59.37
2019-04-01T03:08:25.273Z,59.63
2019-04-01T03:11:02.153Z,59.40
2019-04-01T03:13:38.024Z,59.54
2019-04-01T03:16:13.934Z,59.61
2019-04-01T03:18:49.926Z,59.69
2019-04-01T03:21:25.773Z,59.85
2019-04-01T03:24:01.540Z,59.54
2019-04-01T03:26:38.398Z,60.54
2019-04-01T03:29:14.296Z,60.98
2019-04-01T03:31:50.105Z,61.49
2019-04-01T03:34:25.958Z,61.49
2019-04-01T03:37:01.837Z,61.66
2019-04-01T03:39:38.262Z,62.16
2019-04-01T03:42:14.572Z,61.84
2019-04-01T03:44:54.809Z,61.94
2019-04-01T03:47:27.902Z,62.23
2019-04-01T03:50:03.751Z,62.53
2019-04-01T03:52:39.962Z,62.83
2019-04-01T03:55:15.769Z,63.22
2019-04-01T03:57:51.612Z,63.26
2019-04-01T04:00:27.478Z,63.30
2019-04-01T04:03:03.339Z,63.42
2019-04-01T04:05:39.278Z,63.69
2019-04-01T04:08:15.417Z,63.89
2019-04-01T04:10:52.364Z,63.86
2019-04-01T04:13:28.895Z,64.17
2019-04-01T04:16:04.856Z,63.78
2019-04-01T04:18:40.706Z,63.55
2019-04-01T04:21:16.568Z,63.68
2019-04-01T04:23:52.423Z,63.60
2019-04-01T04:26:28.787Z,63.58
2019-04-01T04:29:04.636Z,63.47
2019-04-01T04:31:40.482Z,63.28
2019-04-01T04:34:16.350Z,63.27
2019-04-01T04:36:52.564Z,63.33
2019-04-01T04:39:28.468Z,63.54
2019-04-01T04:42:04.305Z,63.39
2019-04-01T04:44:40.171Z,63.21
2019-04-01T04:47:16.327Z,63.35
2019-04-01T04:49:52.180Z,63.29
2019-04-01T04:52:28.043Z,63.25
2019-04-01T04:55:04.409Z,63.28
2019-04-01T04:57:40.303Z,63.33
2019-04-01T05:00:16.254Z,63.55
2019-04-01T05:02:52.107Z,63.50
2019-04-01T05:05:27.878Z,63.65
2019-04-01T05:08:04.188Z,63.60
2019-04-01T05:10:40.092Z,63.45
2019-04-01T05:13:16.094Z,63.55
2019-04-01T05:15:52.239Z,63.17
2019-04-01T05:18:28.376Z,63.08
2019-04-01T05:21:04.577Z,62.96
2019-04-01T05:23:40.636Z,63.06
2019-04-01T05:26:17.009Z,63.23
2019-04-01T05:28:54.388Z,63.24
2019-04-01T05:31:31.824Z,63.42
2019-04-01T05:34:08.569Z,63.34
2019-04-01T05:36:48.108Z,63.67
2019-04-01T05:39:23.959Z,63.89
2019-04-01T05:42:00.526Z,64.13
2019-04-01T05:44:36.590Z,64.15
2019-04-01T05:47:12.639Z,63.47
2019-04-01T05:49:54.512Z,63.06
2019-04-01T05:52:30.389Z,63.34
2019-04-01T05:55:08.890Z,63.20
2019-04-01T05:57:44.346Z,63.41
2019-04-01T06:00:31.053Z,63.19
2019-04-01T06:03:07.415Z,63.14
2019-04-01T06:05:43.387Z,63.65
2019-04-01T06:08:19.230Z,63.03
2019-04-01T06:10:55.210Z,62.84
2019-04-01T06:13:31.039Z,63.26
2019-04-01T06:16:06.908Z,62.69
2019-04-01T06:18:42.758Z,62.98
2019-04-01T06:21:18.501Z,62.71
2019-04-01T06:23:54.364Z,62.88
2019-04-01T06:26:30.222Z,62.79
2019-04-01T06:29:07.760Z,62.83
2019-04-01T06:31:43.666Z,62.92
2019-04-01T06:34:20.550Z,63.01
2019-04-01T06:36:56.388Z,62.35
2019-04-01T06:39:32.252Z,62.50
2019-04-01T06:42:09.140Z,62.30
2019-04-01T06:44:44.979Z,61.86
2019-04-01T06:47:20.828Z,60.90
2019-04-01T06:49:56.795Z,60.16
2019-04-01T06:52:33.780Z,59.16
2019-04-01T06:55:10.035Z,58.77
2019-04-01T06:57:47.171Z,57.87
2019-04-01T07:00:23.287Z,57.20
2019-04-01T07:02:59.139Z,57.89
2019-04-01T07:05:35.286Z,55.90
2019-04-01T07:08:11.360Z,54.45
2019-04-01T07:10:47.206Z,53.73
2019-04-01T07:13:23.056Z,54.27
2019-04-01T07:15:58.923Z,52.84
2019-04-01T07:18:35.319Z,52.84
2019-04-01T07:21:12.156Z,53.28
2019-04-01T07:23:48.108Z,50.80
2019-04-01T07:26:23.864Z,50.84
2019-04-01T07:29:00.122Z,52.85
2019-04-01T07:31:35.976Z,51.81
2019-04-01T07:34:11.950Z,50.03
2019-04-01T07:36:48.103Z,49.35
2019-04-01T07:39:24.080Z,49.14
2019-04-01T07:42:00.099Z,48.94
2019-04-01T07:44:35.987Z,49.32
2019-04-01T07:47:11.717Z,50.34
2019-04-01T07:49:47.585Z,50.46
2019-04-01T07:52:23.435Z,49.91
2019-04-01T07:54:59.297Z,48.97
2019-04-01T07:57:35.141Z,48.44
2019-04-01T08:00:11.504Z,50.17
2019-04-01T08:02:48.965Z,48.66
2019-04-01T08:05:26.204Z,47.72
2019-04-01T08:08:02.458Z,45.73
2019-04-01T08:10:38.510Z,45.01
2019-04-01T08:13:14.359Z,44.81
2019-04-01T08:15:50.225Z,45.84
2019-04-01T08:18:26.175Z,45.42
2019-04-01T08:21:02.030Z,45.80
2019-04-01T08:23:38.242Z,44.53
2019-04-01T08:26:14.037Z,43.13
2019-04-01T08:28:49.898Z,45.13
2019-04-01T08:31:26.415Z,44.44
2019-04-01T08:34:02.209Z,44.36
2019-04-01T08:36:38.076Z,43.15
2019-04-01T08:39:15.092Z,44.62
2019-04-01T08:41:51.023Z,43.29
2019-04-01T08:44:26.951Z,42.01
2019-04-01T08:47:02.820Z,41.48
2019-04-01T08:49:38.999Z,42.16
2019-04-01T08:52:15.338Z,41.35
2019-04-01T08:54:52.329Z,39.82
2019-04-01T08:57:28.409Z,40.75
2019-04-01T09:00:09.369Z,40.95
2019-04-01T09:02:45.212Z,41.76
2019-04-01T09:05:22.755Z,41.41
2019-04-01T09:07:59.372Z,41.68
2019-04-01T09:10:35.835Z,40.75
2019-04-01T09:13:11.700Z,40.31
2019-04-01T09:15:47.550Z,39.93
2019-04-01T09:18:23.406Z,39.51
2019-04-01T09:20:59.557Z,40.14
2019-04-01T09:23:35.433Z,40.91
2019-04-01T09:26:11.291Z,39.54
2019-04-01T09:28:47.104Z,39.57
2019-04-01T09:31:22.953Z,38.76
2019-04-01T09:33:58.844Z,38.74
2019-04-01T09:36:34.700Z,39.23
2019-04-01T09:39:10.699Z,38.52
2019-04-01T09:41:46.499Z,39.42
2019-04-01T09:44:36.062Z,38.32
2019-04-01T09:47:00.471Z,40.37
2019-04-01T09:49:36.732Z,39.00
2019-04-01T09:52:12.576Z,39.46
2019-04-01T09:54:48.730Z,38.57
2019-04-01T09:57:24.604Z,37.94
2019-04-01T10:00:00.662Z,38.27
2019-04-01T10:02:36.710Z,38.89
2019-04-01T10:05:12.574Z,39.04
2019-04-01T10:07:48.961Z,40.09
2019-04-01T10:10:24.948Z,39.17
2019-04-01T10:13:00.756Z,37.88
2019-04-01T10:15:36.859Z,37.87
2019-04-01T10:18:12.649Z,37.52
2019-04-01T10:20:48.520Z,37.35
2019-04-01T10:23:24.561Z,36.24
2019-04-01T10:26:00.429Z,35.58
2019-04-01T10:28:36.265Z,36.24
2019-04-01T10:31:12.124Z,37.69
2019-04-01T10:33:48.116Z,36.62
2019-04-01T10:36:24.864Z,36.36
2019-04-01T10:39:03.027Z,37.41
2019-04-01T10:41:40.066Z,33.96
2019-04-01T10:44:17.438Z,35.43
2019-04-01T10:46:53.206Z,36.22
2019-04-01T10:49:32.005Z,35.64
2019-04-01T10:52:06.589Z,35.71
2019-04-01T10:54:42.387Z,34.47
2019-04-01T10:57:18.349Z,35.03
2019-04-01T10:59:54.520Z,33.86
2019-04-01T11:02:30.854Z,33.88
2019-04-01T11:05:07.775Z,31.33
2019-04-01T11:07:43.804Z,32.69
2019-04-01T11:10:19.660Z,34.54
2019-04-01T11:12:55.526Z,35.05
2019-04-01T11:15:31.548Z,33.45
2019-04-01T11:18:08.259Z,34.15
2019-04-01T11:20:44.621Z,33.11
2019-04-01T11:23:33.891Z,33.75
2019-04-01T11:26:21.211Z,34.01
2019-04-01T11:29:28.701Z,34.57
2019-04-01T11:32:18.462Z,33.98
2019-04-01T11:35:03.823Z,34.16
2019-04-01T11:37:50.999Z,32.93
2019-04-01T11:40:38.386Z,33.36
2019-04-01T11:43:28.054Z,34.17
2019-04-01T11:46:12.338Z,31.04
2019-04-01T11:49:00.887Z,31.25
2019-04-01T11:51:53.394Z,33.16
2019-04-01T11:54:44.373Z,31.93
2019-04-01T11:57:22.802Z,32.25
2019-04-01T12:00:00.670Z,31.68
2019-04-01T12:02:43.923Z,30.14
2019-04-01T12:05:31.632Z,31.48
2019-04-01T12:08:15.803Z,30.64
2019-04-01T12:11:00.322Z,31.03
2019-04-01T12:13:52.849Z,29.70
2019-04-01T12:16:41.632Z,30.93
2019-04-01T12:19:27.405Z,30.45
2019-04-01T12:22:19.739Z,31.98
2019-04-01T12:25:02.693Z,31.36
2019-04-01T12:27:47.452Z,32.61
2019-04-01T12:30:33.875Z,32.87
2019-04-01T12:33:25.859Z,30.90
2019-04-01T12:36:11.635Z,30.39
2019-04-01T12:38:58.893Z,31.30
2019-04-01T12:41:39.836Z,30.67
2019-04-01T12:44:21.535Z,29.36
2019-04-01T12:47:07.674Z,29.17
2019-04-01T12:49:53.347Z,28.97
2019-04-01T12:52:47.764Z,30.38
2019-04-01T12:55:28.960Z,29.29
2019-04-01T12:58:25.006Z,29.89
2019-04-01T13:01:05.095Z,31.02
2019-04-01T13:03:53.993Z,31.97
2019-04-01T13:06:29.907Z,31.60
2019-04-01T13:09:07.788Z,31.77
2019-04-01T13:11:43.946Z,29.71
2019-04-01T13:14:27.799Z,31.67
2019-04-01T13:17:03.770Z,29.35
2019-04-01T13:19:39.604Z,31.96
2019-04-01T13:22:15.659Z,32.28
2019-04-01T13:24:51.510Z,31.72
2019-04-01T13:27:28.185Z,29.71
2019-04-01T13:30:06.070Z,30.70
2019-04-01T13:32:42.115Z,29.36
2019-04-01T13:35:18.039Z,29.61
2019-04-01T13:37:54.126Z,29.95
2019-04-01T13:40:30.004Z,28.59
2019-04-01T13:43:06.129Z,31.21
2019-04-01T13:45:42.490Z,29.59
2019-04-01T13:48:19.454Z,30.44
2019-04-01T13:50:55.377Z,29.13
2019-04-01T13:53:31.224Z,29.30
2019-04-01T13:56:10.088Z,28.75
2019-04-01T13:58:44.990Z,29.43
2019-04-01T14:01:20.841Z,29.08
2019-04-01T14:03:57.607Z,29.19
2019-04-01T14:06:34.295Z,28.91
2019-04-01T14:09:10.140Z,27.95
2019-04-01T14:11:45.890Z,28.99
2019-04-01T14:14:21.759Z,29.81
2019-04-01T14:16:57.501Z,29.01
2019-04-01T14:19:33.346Z,30.32
2019-04-01T14:22:10.227Z,28.96
2019-04-01T14:24:46.081Z,29.32
2019-04-01T14:27:21.932Z,28.84
2019-04-01T14:29:57.906Z,29.28
2019-04-01T14:32:34.062Z,30.03
2019-04-01T14:35:10.003Z,30.03
2019-04-01T14:37:45.871Z,29.95
2019-04-01T14:40:21.715Z,29.14
2019-04-01T14:42:57.569Z,28.97
2019-04-01T14:45:33.314Z,29.03
2019-04-01T14:48:09.476Z,28.53
2019-04-01T14:50:45.344Z,28.77
2019-04-01T14:53:22.229Z,30.97
2019-04-01T14:55:59.038Z,30.84
2019-04-01T14:58:35.251Z,29.67
2019-04-01T15:01:11.114Z,29.04
2019-04-01T15:03:46.975Z,29.28
2019-04-01T15:06:22.820Z,29.58
2019-04-01T15:08:58.690Z,29.52
2019-04-01T15:11:34.631Z,30.17
2019-04-01T15:14:10.474Z,29.43
2019-04-01T15:16:46.640Z,30.27
2019-04-01T15:19:22.473Z,30.45
2019-04-01T15:21:58.551Z,29.60
2019-04-01T15:24:34.408Z,29.15
2019-04-01T15:27:10.262Z,29.94
2019-04-01T15:29:46.137Z,30.89
2019-04-01T15:32:22.999Z,30.54
2019-04-01T15:34:59.060Z,31.32
2019-04-01T15:37:35.208Z,30.42
2019-04-01T15:40:11.323Z,30.68
2019-04-01T15:42:47.432Z,30.34
2019-04-01T15:45:23.598Z,31.92
2019-04-01T15:47:59.332Z,31.94
2019-04-01T15:50:35.210Z,31.47
2019-04-01T15:53:11.069Z,32.71
2019-04-01T15:55:46.919Z,30.98
2019-04-01T15:58:22.741Z,31.17
2019-04-01T16:00:58.534Z,31.77
2019-04-01T16:03:34.359Z,33.15
2019-04-01T16:06:10.229Z,32.32
2019-04-01T16:08:46.070Z,32.25
2019-04-01T16:11:21.968Z,32.51
2019-04-01T16:13:57.993Z,33.22
2019-04-01T16:16:34.106Z,31.75
2019-04-01T16:19:10.134Z,32.21
2019-04-01T16:21:46.062Z,33.59
2019-04-01T16:24:22.742Z,32.34
2019-04-01T16:26:58.591Z,33.74
2019-04-01T16:29:34.588Z,33.31
2019-04-01T16:32:10.839Z,33.21
2019-04-01T16:34:46.740Z,33.78
2019-04-01T16:37:22.599Z,33.97
2019-04-01T16:39:58.294Z,35.46
2019-04-01T16:42:34.085Z,34.36
2019-04-01T16:45:10.337Z,35.27
2019-04-01T16:47:48.482Z,35.90
2019-04-01T16:50:24.018Z,36.70
2019-04-01T16:52:59.905Z,37.00
2019-04-01T16:55:36.241Z,36.85
2019-04-01T16:58:12.398Z,36.70
2019-04-01T17:00:48.162Z,36.78
2019-04-01T17:03:23.931Z,37.18
2019-04-01T17:05:59.790Z,36.90
2019-04-01T17:08:36.149Z,37.24
2019-04-01T17:11:12.001Z,38.12
2019-04-01T17:13:47.965Z,38.41
2019-04-01T17:16:23.802Z,38.42
2019-04-01T17:18:59.680Z,38.90
2019-04-01T17:21:35.518Z,39.14
2019-04-01T17:24:11.673Z,39.04
2019-04-01T17:26:56.825Z,39.31
2019-04-01T17:29:33.650Z,39.61
2019-04-01T17:32:09.461Z,39.76
2019-04-01T17:34:45.327Z,40.31
2019-04-01T17:37:21.295Z,40.09
2019-04-01T17:39:57.078Z,40.42
2019-04-01T17:42:33.154Z,41.11
2019-04-01T17:45:26.848Z,41.64
2019-04-01T17:48:04.419Z,42.39
2019-04-01T17:50:40.098Z,42.43
2019-04-01T17:53:15.877Z,42.84
2019-04-01T17:55:51.698Z,42.69
2019-04-01T17:58:27.553Z,42.92
2019-04-01T18:01:03.449Z,43.07
2019-04-01T18:03:39.366Z,43.54
2019-04-01T18:06:17.697Z,43.92
2019-04-01T18:08:58.348Z,44.02
2019-04-01T18:11:34.218Z,44.53
2019-04-01T18:14:10.114Z,44.54
2019-04-01T18:16:46.030Z,44.77
2019-04-01T18:19:21.768Z,44.92
2019-04-01T18:21:57.544Z,44.92
2019-04-01T18:24:33.306Z,45.04
2019-04-01T18:27:09.477Z,45.26
2019-04-01T18:29:45.890Z,45.31
2019-04-01T18:32:34.243Z,45.61
2019-04-01T18:35:10.428Z,45.79
2019-04-01T18:37:46.285Z,45.99
2019-04-01T18:40:32.536Z,46.15
2019-04-01T18:43:00.137Z,46.17
2019-04-01T18:45:36.354Z,46.69
2019-04-01T18:48:14.566Z,46.58
2019-04-01T18:50:49.743Z,47.09
2019-04-01T18:53:28.355Z,47.11
2019-04-01T18:56:04.817Z,47.45
2019-04-01T18:58:40.844Z,47.56
2019-04-01T19:01:16.770Z,47.66
2019-04-01T19:03:52.828Z,48.08
2019-04-01T19:06:28.675Z,48.16
2019-04-01T19:09:09.554Z,48.39
2019-04-01T19:11:45.226Z,48.53
2019-04-01T19:14:21.137Z,48.71
2019-04-01T19:16:57.095Z,49.03
2019-04-01T19:19:33.179Z,49.28
2019-04-01T19:22:09.326Z,49.23
2019-04-01T19:24:45.165Z,48.90
2019-04-01T19:27:22.114Z,49.24
2019-04-01T19:29:58.622Z,49.43
2019-04-01T19:32:34.404Z,49.45
2019-04-01T19:35:10.332Z,49.57
2019-04-01T19:37:46.195Z,49.35
2019-04-01T19:40:23.157Z,49.28
2019-04-01T19:42:59.318Z,49.44
2019-04-01T19:45:35.343Z,49.73
2019-04-01T19:48:11.049Z,49.55
2019-04-01T19:50:46.826Z,49.76
2019-04-01T19:53:24.199Z,49.55
2019-04-01T19:56:00.443Z,49.53
2019-04-01T19:58:36.289Z,49.89
2019-04-01T20:01:12.135Z,49.75
2019-04-01T20:03:47.890Z,49.88
2019-04-01T20:06:24.505Z,49.92
2019-04-01T20:09:00.312Z,49.99
2019-04-01T20:11:36.783Z,50.37
2019-04-01T20:14:12.631Z,50.61
2019-04-01T20:16:48.922Z,50.37
2019-04-01T20:19:24.695Z,50.69
2019-04-01T20:22:00.462Z,50.66
2019-04-01T20:24:36.245Z,50.82
2019-04-01T20:27:11.990Z,51.09
2019-04-01T20:29:47.806Z,51.23
2019-04-01T20:32:23.580Z,51.37
2019-04-01T20:35:00.318Z,51.63
2019-04-01T20:37:36.209Z,51.76
2019-04-01T20:40:12.346Z,51.99
2019-04-01T20:42:48.264Z,52.44
2019-04-01T20:45:24.116Z,52.57
2019-04-01T20:48:00.485Z,52.96
2019-04-01T20:50:36.347Z,53.38
2019-04-01T20:53:12.193Z,53.80
2019-04-01T20:55:49.648Z,54.04
2019-04-01T20:58:26.670Z,54.49
2019-04-01T21:01:03.054Z,54.76
2019-04-01T21:03:38.886Z,54.95
2019-04-01T21:06:14.742Z,55.15
2019-04-01T21:08:50.690Z,55.46
2019-04-01T21:11:26.554Z,55.68
2019-04-01T21:14:03.269Z,55.70
2019-04-01T21:16:39.207Z,55.87
2019-04-01T21:19:16.283Z,56.01
2019-04-01T21:21:52.429Z,56.14
2019-04-01T21:24:28.469Z,56.54
2019-04-01T21:27:04.534Z,56.80
2019-04-01T21:29:40.454Z,57.15
2019-04-01T21:32:17.051Z,57.11
2019-04-01T21:34:52.901Z,57.41
2019-04-01T21:37:28.791Z,57.65
2019-04-01T21:40:08.209Z,57.81
2019-04-01T21:42:44.069Z,58.12
2019-04-01T21:45:19.940Z,58.51
2019-04-01T21:47:55.875Z,58.72
2019-04-01T21:50:31.739Z,58.91
2019-04-01T21:53:07.581Z,59.03
2019-04-01T21:55:43.431Z,59.18
2019-04-01T21:58:20.058Z,59.33
2019-04-01T22:00:58.248Z,59.39
2019-04-01T22:03:35.919Z,59.34
2019-04-01T22:06:11.929Z,59.30
2019-04-01T22:08:48.435Z,59.55
2019-04-01T22:11:24.509Z,59.61
2019-04-01T22:14:00.554Z,59.31
2019-04-01T22:16:36.432Z,59.21
2019-04-01T22:19:12.680Z,59.13
2019-04-01T22:21:48.656Z,59.13
2019-04-01T22:24:24.484Z,59.11
2019-04-01T22:27:00.339Z,59.21
2019-04-01T22:29:36.306Z,59.41
2019-04-01T22:32:13.069Z,59.55
2019-04-01T22:34:49.021Z,59.68
2019-04-01T22:37:27.595Z,59.79
2019-04-01T22:40:02.738Z,59.91
2019-04-01T22:42:38.540Z,60.04
2019-04-01T22:45:14.600Z,60.00
2019-04-01T22:47:52.296Z,59.99
2019-04-01T22:50:28.142Z,59.63
2019-04-01T22:53:04.378Z,59.58
2019-04-01T22:55:41.036Z,59.58
2019-04-01T22:58:16.941Z,59.49
2019-04-01T23:00:52.784Z,59.60
2019-04-01T23:03:28.592Z,59.68
2019-04-01T23:06:06.286Z,59.82
2019-04-01T23:08:42.611Z,59.82
2019-04-01T23:11:18.760Z,59.84
2019-04-01T23:13:55.252Z,59.74
2019-04-01T23:16:31.081Z,59.81
2019-04-01T23:19:06.952Z,59.85
2019-04-01T23:21:42.798Z,60.09
2019-04-01T23:24:18.659Z,60.08
2019-04-01T23:26:55.324Z,60.08
2019-04-01T23:29:32.827Z,60.13
2019-04-01T23:32:09.084Z,60.12
2019-04-01T23:34:44.933Z,60.07
2019-04-01T23:37:21.703Z,60.18
2019-04-01T23:39:57.455Z,60.21
2019-04-01T23:42:33.207Z,60.15
2019-04-01T23:45:09.572Z,59.99
2019-04-01T23:47:45.650Z,60.01
2019-04-01T23:50:21.494Z,60.10
2019-04-01T23:52:57.349Z,60.03
2019-04-01T23:55:33.203Z,60.27
2019-04-01T23:58:10.074Z,60.33
